2017 TriAggieland Kids Tri

[ 6 Year Old ] [ 7 - 10 Year Old] [ 11 - 15 year Old ]

[ Club Points ]

2017 TriAggieland Kids Tri
11 - 15 Year Old Results
# of finishers: 154
# of female finishers: 63
# of male finishers: 91
Age Group
Pos
Gender Pos Pos Name Race No Time Swim/Run
Split
T1 Bike
Split
Bike Pace T2 Run
Split
Run Pace
11 yo Fat Tire
Female
1 44 109 Maria CALIZZI 145 00:51:18 00:06:33 00:01:32 00:26:58 13.8 m/hr 00:01:17 00:14:56 12:27 min/m
2 50 121 Madison VAN WIE 141 00:53:27 00:07:06 00:02:18 00:29:04 12.8 m/hr 00:02:09 00:12:49 10:41 min/m
3 59 148 Macy MCLEMORE 148 01:05:41 00:08:58 00:01:04 00:36:58 10.1 m/hr 00:02:51 00:15:49 13:11 min/m
4 60 149 Andie STANNARD 136 01:05:55 00:07:56 00:03:06 00:35:46 10.4 m/hr 00:01:43 00:17:22 14:29 min/m
Male
1 28 48 Peyton JOHNSTON 164 00:42:17 00:05:14 00:00:45 00:26:06 14.3 m/hr 00:00:41 00:09:31 7:55 min/m
2 47 77 Talon KENFIELD 123 00:45:06 00:05:44 00:01:46 00:24:02 15.5 m/hr 00:00:46 00:12:46 10:38 min/m
3 49 84 Riyad ELOUAID 137 00:46:09 00:06:01 00:01:26 00:27:23 13.6 m/hr 00:01:31 00:09:46 8:09 min/m
4 59 99 David TOUSSAINT 138 00:49:00 00:06:54 00:01:49 00:28:46 12.9 m/hr 00:01:10 00:10:20 8:37 min/m
5 62 104 Evan GAULT 142 00:50:08 00:06:47 00:00:55 00:31:39 11.8 m/hr 00:00:35 00:10:11 8:29 min/m
6 65 108 Lovelace SOIREZ 115 00:51:14 00:06:10 00:01:18 00:30:38 12.1 m/hr 00:01:30 00:11:35 9:39 min/m
7 66 112 Finnon BEISENHERZ 144 00:51:42 00:07:00 00:01:16 00:30:37 12.1 m/hr 00:01:11 00:11:35 9:39 min/m
8 68 116 Griffin MAYO 150 00:52:22 00:06:46 00:01:47 00:29:50 12.5 m/hr 00:01:01 00:12:57 10:47 min/m
9 71 120 Dexter WHILES 143 00:53:26 00:06:37 00:00:41 00:32:11 11.6 m/hr 00:00:33 00:13:21 11:08 min/m
10 74 127 Joshua LINERODE 139 00:54:06 00:07:04 00:01:44 00:30:35 12.2 m/hr 00:00:47 00:13:55 11:36 min/m
11 79 132 Sebastian JIMENEZ 149 00:54:53 00:06:46 00:01:36 00:33:49 11.0 m/hr 00:00:44 00:11:55 9:56 min/m
12 80 133 William COPELAND 147 00:55:15 00:07:48 00:01:34 00:31:24 11.8 m/hr 00:00:39 00:13:47 11:29 min/m
13 84 137 Jack LOONEY 146 00:57:22 00:07:18 00:02:36 00:32:24 11.5 m/hr 00:01:08 00:13:55 11:35 min/m
14 85 138 Micah KRAJCA 140 00:58:02 00:06:14 00:03:19 00:29:37 12.6 m/hr 00:01:39 00:17:10 14:19 min/m
11 yo Road Bike
Female
1 4 5 Clare Anne DASSO 103 00:34:31 00:04:54 00:00:23 00:20:21 18.3 m/hr 00:00:21 00:08:30 7:05 min/m
2 10 17 Jenna TOPOTT 118 00:37:54 00:05:34 00:00:30 00:21:44 17.1 m/hr 00:00:37 00:09:27 7:53 min/m
3 11 21 Hailey REITZER 121 00:38:09 00:05:30 00:00:25 00:21:41 17.1 m/hr 00:00:31 00:10:00 8:20 min/m
4 14 25 Lisa KORTEKAAS 102 00:38:56 00:04:51 00:00:40 00:22:44 16.4 m/hr 00:00:25 00:10:15 8:32 min/m
5 23 56 Dakota FISHER 127 00:42:47 00:06:23 00:00:45 00:22:43 16.4 m/hr 00:00:37 00:12:18 10:15 min/m
6 36 87 Hope REICHERT 111 00:47:02 00:05:43 00:00:44 00:27:47 13.4 m/hr 00:00:56 00:11:50 9:52 min/m
7 41 101 Kennah BENT 133 00:49:13 00:06:45 00:01:04 00:28:29 13.1 m/hr 00:01:03 00:11:50 9:52 min/m
8 42 103 Dakota TOWNLEY 106 00:49:43 00:05:52 00:01:46 00:29:05 12.8 m/hr 00:01:09 00:11:50 9:51 min/m
9 57 143 Lauren CROSS 126 01:00:54 00:09:00 00:01:34 00:33:29 11.1 m/hr 00:01:03 00:15:46 13:08 min/m
10 58 147 Michayla HALL 159 01:03:38 00:09:00 00:03:01 00:29:27 12.6 m/hr 00:02:37 00:19:32 16:17 min/m
Male
1 7 16 Aiden CROWELL 158 00:37:45 00:05:32 00:00:29 00:21:21 17.4 m/hr 00:00:39 00:09:42 8:05 min/m
2 8 18 Luca MENENDEZ 108 00:37:55 00:05:30 00:00:25 00:21:41 17.1 m/hr 00:00:37 00:09:39 8:03 min/m
3 13 27 Kevin MATHIESEN 107 00:39:08 00:05:29 00:00:25 00:22:50 16.3 m/hr 00:00:20 00:10:02 8:22 min/m
4 14 28 Billy KREBS 104 00:39:15 00:04:45 00:00:53 00:23:43 15.7 m/hr 00:00:28 00:09:24 7:50 min/m
5 16 30 Cortlin SALGE 105 00:39:35 00:05:50 00:01:16 00:22:37 16.4 m/hr 00:00:34 00:09:16 7:43 min/m
6 17 33 Ryan SLIMPIN 112 00:39:56 00:05:22 00:00:33 00:23:01 16.2 m/hr 00:00:43 00:10:14 8:32 min/m
7 22 40 Howie BERMEL 124 00:40:55 00:05:40 00:00:52 00:23:24 15.9 m/hr 00:00:28 00:10:28 8:43 min/m
8 24 44 Carson PADILLA 125 00:41:49 00:05:38 00:00:37 00:25:07 14.8 m/hr 00:00:30 00:09:55 8:16 min/m
9 25 45 Cade SINGLETERRY 119 00:41:49 00:05:51 00:00:58 00:23:32 15.8 m/hr 00:00:31 00:10:56 9:06 min/m
10 31 53 Carson COLLINS 114 00:42:39 00:05:35 00:00:56 00:25:37 14.5 m/hr 00:00:44 00:09:44 8:07 min/m
11 32 54 Bradon ARRANT 131 00:42:43 00:06:33 00:00:29 00:24:06 15.4 m/hr 00:00:56 00:10:36 8:50 min/m
12 33 55 Logan CHASE 122 00:42:44 00:06:22 00:00:39 00:24:07 15.4 m/hr 00:00:53 00:10:41 8:54 min/m
13 35 58 Robert MAYFIELD 116 00:43:00 00:06:07 00:00:34 00:22:19 16.7 m/hr 00:00:47 00:13:11 10:59 min/m
14 38 62 Jackson REED 120 00:43:22 00:06:00 00:00:33 00:22:44 16.4 m/hr 00:00:53 00:13:10 10:58 min/m
15 41 68 Matthew WARD 113 00:44:29 00:06:25 00:00:47 00:25:59 14.3 m/hr 00:00:23 00:10:53 9:04 min/m
16 44 73 Malcolm LACOSTE 110 00:44:48 00:05:15 00:00:35 00:26:05 14.3 m/hr 00:00:26 00:12:25 10:21 min/m
17 48 80 Devin KARSCHNIK 129 00:45:26 00:06:26 00:00:59 00:26:19 14.1 m/hr 00:00:56 00:10:44 8:57 min/m
18 61 102 Jacob ROGERS 134 00:49:23 00:07:50 00:01:05 00:24:43 15.0 m/hr 00:00:56 00:14:46 12:18 min/m
19 70 119 Dylan LAFFERTY 135 00:52:59 00:09:08 00:01:22 00:28:20 13.1 m/hr 00:01:14 00:12:52 10:43 min/m
20 86 142 Vidal BUSTAMANTE 117 01:00:49 00:05:57 00:03:04 00:31:23 11.9 m/hr 00:02:14 00:18:09 15:08 min/m
12 yo Fat Tire
Female
1 32 79 Samantha MADSEN 90 00:45:17 00:05:49 00:00:57 00:26:35 14.0 m/hr 00:00:55 00:11:00 9:10 min/m
2 35 83 Sarah HUEBEL 89 00:46:05 00:06:00 00:00:57 00:27:01 13.8 m/hr 00:00:59 00:11:06 9:15 min/m
3 43 106 Kristen DUPRE 162 00:50:19 00:06:49 00:00:50 00:31:31 11.8 m/hr 00:01:05 00:10:02 8:21 min/m
4 48 115 Gabreala MARSHALL 85 00:52:03 00:06:05 00:01:56 00:29:17 12.7 m/hr 00:01:38 00:13:04 10:53 min/m
5 55 140 Marissa HOLT 99 00:59:31 00:07:26 00:01:00 00:33:26 11.1 m/hr 00:00:39 00:16:59 14:09 min/m
6 56 141 Kaitlin HORACEFIELD 86 01:00:08 00:07:09 00:01:27 00:31:16 11.9 m/hr 00:01:56 00:18:18 15:15 min/m
7 61 150 Rugveda PATIL 96 01:06:22 00:10:06 00:01:07 00:37:24 9.9 m/hr 00:00:51 00:16:51 14:02 min/m
8 62 151 Grace MIGL 93 01:07:01 00:08:31 00:02:25 00:37:26 9.9 m/hr 00:01:01 00:17:36 14:40 min/m
Male
1 43 72 Nathan PARULIAN 97 00:44:44 00:06:03 00:01:16 00:27:10 13.7 m/hr 00:00:42 00:09:31 7:56 min/m
2 52 88 Aspen AGUILAR 83 00:47:21 00:06:09 00:01:19 00:26:39 14.0 m/hr 00:01:18 00:11:54 9:55 min/m
3 56 95 Nash PATTON 87 00:48:30 00:05:51 00:01:09 00:28:22 13.1 m/hr 00:00:39 00:12:28 10:23 min/m
4 67 114 David WARD 92 00:51:52 00:06:14 00:02:07 00:29:46 12.5 m/hr 00:01:30 00:12:13 10:11 min/m
5 82 135 Vincent STRONG 95 00:56:46 00:09:25 00:02:32 00:19:45 18.8 m/hr 00:02:46 00:22:16 18:33 min/m
6 87 144 Gage GWYNNE 94 01:02:30 00:06:58 00:01:49 00:31:41 11.7 m/hr 00:01:04 00:20:56 17:26 min/m
7 88 145 Peter MIXON 100 01:02:48 00:07:22 00:02:17 00:32:32 11.4 m/hr 00:01:17 00:19:19 16:06 min/m
8 90 153 Benjamin WITT 84 01:09:54 00:06:28 00:02:23 00:36:55 10.1 m/hr 00:01:13 00:22:52 19:04 min/m
9 91 154 Andrew HABY 101 01:21:42 00:07:32 00:02:36 00:41:03 9.1 m/hr 00:02:09 00:28:21 23:37 min/m
12 yo Road Bike
Female
1 5 7 Mikaela GARZA 67 00:34:40 00:05:02 00:00:22 00:20:22 18.3 m/hr 00:00:27 00:08:25 7:01 min/m
2 15 31 Elizabeth WINKLER 66 00:39:39 00:05:51 00:00:45 00:21:34 17.2 m/hr 00:00:32 00:10:55 9:05 min/m
3 18 38 Isabella MIXON 72 00:40:38 00:05:24 00:00:39 00:24:01 15.5 m/hr 00:00:24 00:10:08 8:26 min/m
4 20 43 Amelia ANDERSON 156 00:41:31 00:06:08 00:00:36 00:23:28 15.8 m/hr 00:00:45 00:10:32 8:46 min/m
5 21 49 Arina CONNELL 61 00:42:30 00:05:02 00:00:37 00:24:34 15.1 m/hr 00:00:26 00:11:48 9:50 min/m
6 28 70 Maddie AUBREY 58 00:44:39 00:05:39 00:00:52 00:24:40 15.1 m/hr 00:00:34 00:12:53 10:44 min/m
7 29 71 Cailyn SCHNEIDER 63 00:44:39 00:05:32 00:01:03 00:25:26 14.6 m/hr 00:00:39 00:11:57 9:57 min/m
8 38 91 Shiri DAR 73 00:47:53 00:06:19 00:00:38 00:25:37 14.5 m/hr 00:00:52 00:14:26 12:01 min/m
9 39 94 Keira WEATHERWAX 69 00:48:25 00:06:53 00:01:13 00:26:37 14.0 m/hr 00:00:42 00:12:58 10:49 min/m
10 47 113 Tuana ALLEN 65 00:51:51 00:05:58 00:01:04 00:30:47 12.1 m/hr 00:00:43 00:13:17 11:04 min/m
11 49 118 Abbie CERVANTES 60 00:52:58 00:05:32 00:00:49 00:30:27 12.2 m/hr 00:00:52 00:15:15 12:43 min/m
12 53 126 Keira CARROLL 78 00:54:02 00:07:43 00:01:19 00:29:02 12.8 m/hr 00:01:18 00:14:37 12:11 min/m
13 54 139 Katelyn LAFFERTY 80 00:58:20 00:07:25 00:01:13 00:28:40 13.0 m/hr 00:01:13 00:19:47 16:29 min/m
Male
1 1 2 Reese VANNERSON 57 00:31:22 00:04:30 00:00:18 00:18:41 19.9 m/hr 00:00:30 00:07:21 6:07 min/m
2 6 14 Asa WOLFE 64 00:37:14 00:05:27 00:00:26 00:21:24 17.4 m/hr 00:00:31 00:09:23 7:49 min/m
3 10 20 Nathan LANGHAM 68 00:38:08 00:05:25 00:00:54 00:21:31 17.3 m/hr 00:01:05 00:09:11 7:39 min/m
4 29 51 Dax LANDREY 75 00:42:38 00:06:38 00:01:24 00:23:44 15.7 m/hr 00:00:33 00:10:17 8:34 min/m
5 34 57 Riley ASH 55 00:42:53 00:05:50 00:00:25 00:23:44 15.7 m/hr 00:00:28 00:12:24 10:20 min/m
6 36 59 Harold CHRISTIANSEN 56 00:43:09 00:05:06 00:01:18 00:25:09 14.8 m/hr 00:00:37 00:10:57 9:08 min/m
7 37 60 Luke WARD 62 00:43:11 00:05:30 00:00:49 00:23:44 15.7 m/hr 00:00:29 00:12:37 10:30 min/m
8 39 66 Evan STRINGFELLOW 70 00:44:07 00:05:44 00:01:11 00:22:38 16.4 m/hr 00:00:31 00:14:01 11:41 min/m
9 54 92 Ethan MCELROY 76 00:47:59 00:06:58 00:01:05 00:26:30 14.0 m/hr 00:00:51 00:12:33 10:27 min/m
10 55 93 Kofi APASU 155 00:48:20 00:05:52 00:01:06 00:28:11 13.2 m/hr 00:01:02 00:12:07 10:06 min/m
11 63 105 Austin HINTON 82 00:50:11 00:09:20 00:01:28 00:24:12 15.4 m/hr 00:00:53 00:14:16 11:53 min/m
12 64 107 Brooks CESAN 59 00:50:19 00:05:56 00:01:00 00:26:56 13.8 m/hr 00:00:36 00:15:49 13:11 min/m
13 69 117 Allan GONZALEZ 71 00:52:53 00:06:52 00:00:50 00:26:51 13.9 m/hr 00:00:41 00:17:38 14:41 min/m
14 72 123 Alex KISSAMIS 74 00:53:36 00:06:49 00:01:17 00:29:13 12.7 m/hr 00:01:09 00:15:06 12:35 min/m
15 73 124 Tyler ABDALLA 157 00:53:42 00:07:05 00:01:53 00:32:00 11.6 m/hr 00:00:40 00:12:01 10:01 min/m
16 75 128 Jacob MCLEMORE 81 00:54:18 00:07:52 00:02:00 00:26:56 13.8 m/hr 00:01:19 00:16:09 13:27 min/m
17 78 131 Aiden SHIRLEY 79 00:54:48 00:07:36 00:01:04 00:30:35 12.2 m/hr 00:01:35 00:13:56 11:37 min/m
13 yo Fat Tire
Female
1 30 75 Sofia CRISCITIELLO 51 00:44:57 00:05:21 00:01:11 00:27:05 13.7 m/hr 00:01:03 00:10:16 8:33 min/m
Male
1 53 89 Joey TOUSSAINT 52 00:47:21 00:05:50 00:01:25 00:28:08 13.2 m/hr 00:00:47 00:11:08 9:16 min/m
2 60 100 Brody MITCHELL 54 00:49:08 00:06:45 00:01:02 00:29:12 12.7 m/hr 00:01:17 00:10:49 9:01 min/m
3 83 136 Alex ERICKSON 53 00:57:05 00:07:09 00:02:41 00:29:44 12.5 m/hr 00:01:11 00:16:18 13:35 min/m
13 yo Road Bike
Female
1 1 1 Faith DASSO 19 00:30:53 00:04:29 00:00:26 00:17:54 20.8 m/hr 00:00:20 00:07:43 6:26 min/m
2 3 4 Lexi HARKRIDER 25 00:34:06 00:04:43 00:00:21 00:20:11 18.4 m/hr 00:00:22 00:08:29 7:04 min/m
3 12 22 Victoria DEUTERIO 31 00:38:16 00:05:11 00:00:22 00:22:16 16.7 m/hr 00:00:32 00:09:53 8:14 min/m
4 13 23 Anh HO 41 00:38:31 00:05:08 00:00:37 00:23:06 16.1 m/hr 00:00:22 00:09:15 7:43 min/m
5 16 32 Christiana COKER 33 00:39:48 00:05:56 00:00:41 00:21:27 17.3 m/hr 00:00:34 00:11:08 9:17 min/m
6 19 42 Alex NABORS 21 00:41:00 00:05:23 00:00:50 00:23:11 16.0 m/hr 00:00:24 00:11:09 9:17 min/m
7 22 50 Sierra HILL 36 00:42:32 00:05:55 00:00:31 00:22:14 16.7 m/hr 00:00:25 00:13:24 11:10 min/m
8 24 61 Sabrina GARZA 46 00:43:14 00:06:06 00:00:56 00:25:10 14.8 m/hr 00:00:32 00:10:29 8:44 min/m
9 25 63 Abigail JACKSON 27 00:43:32 00:04:45 00:00:45 00:23:40 15.7 m/hr 00:00:37 00:13:44 11:26 min/m
10 26 64 Priscilla CHOW 29 00:43:54 00:05:53 00:00:51 00:24:36 15.1 m/hr 00:00:47 00:11:44 9:47 min/m
11 27 65 Lowrey LAIN 49 00:43:56 00:06:31 00:01:05 00:25:15 14.7 m/hr 00:00:43 00:10:20 8:36 min/m
12 34 82 Zana STANFIELD 40 00:46:05 00:05:20 00:01:16 00:25:08 14.8 m/hr 00:01:19 00:13:00 10:50 min/m
13 37 90 Christy SLIMPIN 26 00:47:27 00:05:24 00:00:39 00:28:14 13.2 m/hr 00:00:27 00:12:41 10:34 min/m
14 40 98 Ashleigh PHILLIPS 32 00:48:54 00:06:11 00:01:31 00:26:30 14.0 m/hr 00:00:43 00:13:56 11:37 min/m
15 46 111 Georgia TARANTINO 28 00:51:41 00:06:57 00:00:59 00:27:48 13.4 m/hr 00:00:43 00:15:12 12:40 min/m
16 51 122 Peyton LEONARD 45 00:53:29 00:06:48 00:01:40 00:27:51 13.4 m/hr 00:00:47 00:16:21 13:38 min/m
17 52 125 Abbie SPALLER 50 00:53:55 00:06:20 00:01:43 00:31:40 11.7 m/hr 00:01:02 00:13:09 10:57 min/m
Male
1 3 8 Kai BLANKNER 20 00:35:13 00:04:50 00:00:18 00:19:51 18.7 m/hr 00:00:22 00:09:49 8:11 min/m
2 5 12 Hunter THRASHER 34 00:37:04 00:05:29 00:00:33 00:20:59 17.7 m/hr 00:00:37 00:09:25 7:51 min/m
3 9 19 Hunter MILLER 23 00:38:02 00:04:31 00:00:54 00:21:11 17.6 m/hr 00:00:50 00:10:35 8:49 min/m
4 11 24 Anthony CALIZZI 39 00:38:40 00:05:26 00:00:49 00:23:06 16.1 m/hr 00:00:24 00:08:52 7:23 min/m
5 12 26 Eli DERR 35 00:39:06 00:05:44 00:00:38 00:21:22 17.4 m/hr 00:00:39 00:10:41 8:54 min/m
6 18 34 Noah TURNER 43 00:40:08 00:05:23 00:01:49 00:21:47 17.1 m/hr 00:00:46 00:10:20 8:36 min/m
7 21 39 Luke JACKSON 38 00:40:44 00:06:17 00:00:26 00:23:07 16.1 m/hr 00:00:34 00:10:18 8:35 min/m
8 23 41 Alex BUBEN 37 00:40:56 00:05:46 00:01:06 00:21:26 17.4 m/hr 00:00:32 00:12:04 10:04 min/m
9 26 46 Philip MILLER 24 00:42:00 00:04:52 00:00:58 00:23:36 15.8 m/hr 00:00:34 00:11:58 9:58 min/m
10 45 74 Ethan HOOD 42 00:44:49 00:05:37 00:01:09 00:25:11 14.8 m/hr 00:00:30 00:12:20 10:17 min/m
11 51 86 Trace FLORES 47 00:46:48 00:07:17 00:01:11 00:27:29 13.5 m/hr 00:00:35 00:10:14 8:31 min/m
12 58 97 Zachary ARCHER 44 00:48:49 00:07:07 00:01:10 00:25:42 14.5 m/hr 00:00:31 00:14:17 11:54 min/m
13 81 134 Benjamin SMAISTRLA 30 00:56:43 00:06:15 00:01:36 00:31:37 11.8 m/hr 00:00:49 00:16:25 13:40 min/m
14 89 146 Ethan LYNDS 48 01:03:15 00:07:17 00:02:45 00:29:20 12.7 m/hr 00:01:17 00:22:34 18:49 min/m
14 yo Fat Tire
Female
1 45 110 Sophia CHRISTIANSEN 16 00:51:22 00:04:43 00:02:09 00:33:41 11.0 m/hr 00:02:21 00:08:26 7:01 min/m
2 63 152 Abigail BRYANT 11 01:08:51 00:07:37 00:02:18 00:41:27 9.0 m/hr 00:01:28 00:15:59 13:19 min/m
Male
1 76 129 Dylan MOORE 18 00:54:25 00:07:32 00:02:43 00:30:03 12.4 m/hr 00:01:42 00:12:23 10:19 min/m
2 77 130 Mason MOORE 17 00:54:27 00:08:14 00:01:36 00:29:23 12.7 m/hr 00:01:40 00:13:32 11:17 min/m
14 yo Road Bike
Female
1 6 9 Briley BELL 152 00:35:18 00:04:54 00:00:42 00:20:19 18.3 m/hr 00:00:46 00:08:35 7:09 min/m
2 8 13 Emma CALVERT 9 00:37:08 00:04:53 00:00:44 00:21:16 17.5 m/hr 00:00:25 00:09:49 8:11 min/m
3 9 15 Carli CHEATHAM 7 00:37:21 00:04:59 00:00:21 00:21:35 17.2 m/hr 00:00:28 00:09:56 8:17 min/m
Male
1 2 6 Kristian URQUHART 154 00:34:34 00:04:48 00:00:30 00:19:33 19.0 m/hr 00:00:44 00:08:57 7:28 min/m
2 4 11 Diego LEI 165 00:36:21 00:04:45 00:00:23 00:20:29 18.1 m/hr 00:00:42 00:10:00 8:20 min/m
3 15 29 Paulo Emmanuel CATAQUIS 10 00:39:33 00:05:16 00:00:46 00:22:59 16.2 m/hr 00:00:22 00:10:08 8:27 min/m
4 19 35 Landon ERICKSON 14 00:40:09 00:05:41 00:00:51 00:22:04 16.9 m/hr 00:00:31 00:10:59 9:09 min/m
5 27 47 Lance HOLLOWAY 13 00:42:03 00:05:48 00:00:48 00:23:19 15.9 m/hr 00:00:41 00:11:25 9:31 min/m
6 40 67 Leonel GARZA 12 00:44:22 00:05:52 00:00:41 00:25:35 14.5 m/hr 00:00:32 00:11:40 9:43 min/m
7 50 85 Colby ASH 8 00:46:26 00:07:38 00:00:31 00:24:08 15.4 m/hr 00:01:01 00:13:06 10:55 min/m
8 57 96 Neel NEUPANE 15 00:48:38 00:07:12 00:01:35 00:27:29 13.5 m/hr 00:00:34 00:11:46 9:48 min/m
15 yo Fat Tire
Male
1 30 52 Harrison PAO 6 00:42:39 00:04:44 00:01:01 00:25:22 14.7 m/hr 00:01:04 00:10:25 8:40 min/m
2 42 69 Drake BEST 161 00:44:32 00:06:30 00:01:37 00:24:54 14.9 m/hr 00:01:31 00:09:58 8:18 min/m
3 46 76 Rahul CHAWLANI 5 00:44:58 00:05:02 00:01:32 00:25:54 14.4 m/hr 00:01:02 00:11:26 9:32 min/m
15 yo Road Bike
Female
1 2 3 Hannah GAULT 4 00:33:34 00:05:02 00:00:28 00:19:10 19.4 m/hr 00:00:29 00:08:23 6:59 min/m
2 7 10 Mckenzie GUNTER 1 00:35:28 00:04:38 00:00:24 00:20:16 18.3 m/hr 00:00:22 00:09:46 8:08 min/m
3 17 36 Emily HUEBEL 166 00:40:14 00:05:34 00:01:03 00:22:49 16.3 m/hr 00:00:38 00:10:08 8:27 min/m
4 31 78 Octavia STRONG 3 00:45:14 00:06:37 00:02:21 00:23:00 16.2 m/hr 00:00:50 00:12:24 10:20 min/m
5 33 81 Grace TARANTINO 2 00:46:00 00:06:56 00:01:20 00:24:37 15.1 m/hr 00:00:28 00:12:36 10:30 min/m
Male
1 20 37 Andrew ANDERSON 151 00:40:28 00:05:25 00:00:53 00:22:02 16.9 m/hr 00:01:10 00:10:55 9:06 min/m
Chip Timing by RRPTiming.com!

[ 6 Year Old ] [ 7 - 10 Year Old] [ 11 - 15 year Old ]

2017 TriAggieland Kids Tri
7 - 10 Year Old Results
# of finishers: 191
# of female finishers: 77
# of male finishers: 114
Gender Pos Pos Name Race No Time Age Group
Pos
Swim/Run
Split
T1 Bike
Split
Bike Pace T2 Run
Split
Run Pace
10 yo Fat Tire
Female
1 11 40 Savannah CRISCITIELLO 213 00:25:44 00:03:43 00:01:03 00:14:43 12.6 m/hr 00:00:54 00:05:19 8:34 min/m
2 18 58 Kyllysta DAWKINS 218 00:27:17 00:05:45 00:00:47 00:14:47 12.6 m/hr 00:00:47 00:05:09 8:19 min/m
3 25 74 Cate SALGE 225 00:28:26 00:04:34 00:00:58 00:15:38 11.9 m/hr 00:00:45 00:06:29 10:27 min/m
4 26 75 Tessa CHRISTIANSEN 210 00:28:42 00:05:28 00:00:56 00:15:38 11.9 m/hr 00:00:46 00:05:52 9:29 min/m
5 28 77 Audrey FULHAM 211 00:28:43 00:04:44 00:01:05 00:16:07 11.5 m/hr 00:00:50 00:05:55 9:34 min/m
6 33 100 Ava UNGER 232 00:31:05 00:04:11 00:02:29 00:17:07 10.9 m/hr 00:00:45 00:06:31 10:31 min/m
7 37 108 Kenna MITCHELL 230 00:31:43 00:04:21 00:01:46 00:17:54 10.4 m/hr 00:00:44 00:06:56 11:12 min/m
8 40 114 Riley PAO 219 00:32:17 00:04:50 00:01:57 00:16:02 11.6 m/hr 00:02:21 00:07:05 11:25 min/m
9 42 116 Allysa PARULIAN 354 00:32:28 00:03:34 00:03:01 00:18:48 9.9 m/hr 00:01:14 00:05:49 9:23 min/m
10 48 127 Aubree SCOTT 233 00:33:50 00:06:22 00:00:58 00:19:59 9.3 m/hr 00:00:59 00:05:29 8:52 min/m
11 54 137 Kalee ALEXANDER 224 00:34:57 00:05:37 00:00:50 00:21:00 8.9 m/hr 00:00:56 00:06:32 10:32 min/m
12 58 145 Camden LECHLER 234 00:36:14 00:04:15 00:05:40 00:17:49 10.4 m/hr 00:00:54 00:07:35 12:14 min/m
13 63 152 Emma BERDICH 229 00:37:43 00:04:26 00:02:59 00:17:13 10.8 m/hr 00:01:05 00:11:58 19:18 min/m
14 64 153 Kaitlin HAMMOND 228 00:37:56 00:07:31 00:01:07 00:20:58 8.9 m/hr 00:01:05 00:07:14 11:40 min/m
15 65 156 Sarah LYONS 231 00:38:14 00:04:16 00:03:00 00:21:40 8.6 m/hr 00:00:43 00:08:32 13:46 min/m
16 66 157 Emma JOSLIN 235 00:38:23 00:04:10 00:06:45 00:18:22 10.1 m/hr 00:01:11 00:07:53 12:43 min/m
17 76 173 Allison BRYANT 199 00:50:28 00:06:18 00:02:20 00:31:19 5.9 m/hr 00:01:39 00:08:49 14:14 min/m
Male
1 14 17 Scott HORACEFIELD 212 00:24:06 00:03:54 00:01:04 00:13:31 13.8 m/hr 00:01:10 00:04:24 7:07 min/m
2 17 23 Zachary MADSEN 221 00:24:15 00:04:06 00:00:53 00:13:57 13.3 m/hr 00:00:48 00:04:29 7:14 min/m
3 39 56 Joshua FLIPPEN 352 00:27:16 00:04:40 00:01:23 00:15:35 11.9 m/hr 00:00:58 00:04:37 7:27 min/m
4 40 57 Austin WILKE 226 00:27:17 00:05:05 00:01:03 00:15:18 12.1 m/hr 00:01:02 00:04:46 7:41 min/m
5 45 64 Josiah FLIPPEN 353 00:27:45 00:05:10 00:01:03 00:15:29 12.0 m/hr 00:00:55 00:05:07 8:16 min/m
6 50 79 James WARD 227 00:28:51 00:04:38 00:02:01 00:16:19 11.4 m/hr 00:00:47 00:05:03 8:09 min/m
7 58 89 Jake BERDICH 236 00:29:36 00:05:57 00:01:03 00:15:07 12.3 m/hr 00:01:00 00:06:28 10:25 min/m
8 70 105 Isaac LINERODE 216 00:31:34 00:04:06 00:01:53 00:17:39 10.5 m/hr 00:01:41 00:06:13 10:02 min/m
9 85 140 Benjamin KRAJCA 217 00:35:09 00:04:55 00:04:02 00:17:45 10.5 m/hr 00:00:56 00:07:30 12:05 min/m
10 86 143 Javob PUTTY 194 00:35:53 00:05:11 00:02:39 00:19:57 9.3 m/hr 00:01:23 00:06:41 10:48 min/m
      Coby WHITTEN 222 00:17:19     00:03:21 55.3 m/hr      
10 yo Road Bike
Female
1 1 1 Mj NOVELLI 171 00:20:58 00:03:55 00:00:33 00:11:45 15.8 m/hr 00:00:41 00:04:01 6:30 min/m
2 3 10 Averi DUNCAN 179 00:23:30 00:03:46 00:00:57 00:13:14 14.1 m/hr 00:01:04 00:04:28 7:13 min/m
3 6 22 Sarah SLIMPIN 177 00:24:14 00:04:02 00:00:58          
4 8 29 Elise STRINGFELLOW 196 00:25:02 00:04:19 00:01:29 00:13:03 14.2 m/hr 00:00:43 00:05:26 8:46 min/m
5 9 31 Sophia NGUYEN 183 00:25:10 00:03:35 00:01:05 00:14:29 12.8 m/hr 00:01:06 00:04:53 7:53 min/m
6 10 35 Adalade JORISSEN 184 00:25:25 00:04:29 00:01:12 00:13:30 13.8 m/hr 00:01:09 00:05:03 8:09 min/m
7 12 42 Olivia MIXON 205 00:26:00 00:04:18 00:01:25 00:13:51 13.4 m/hr 00:01:17 00:05:07 8:15 min/m
8 13 43 Gabrielle HILL 192 00:26:01 00:04:41 00:01:13 00:13:33 13.7 m/hr 00:00:52 00:05:39 9:07 min/m
9 14 49 Grace HILL 182 00:26:52 00:04:23 00:01:18 00:14:47 12.6 m/hr 00:00:43 00:05:38 9:06 min/m
10 15 50 Avery WOLFE 204 00:26:55 00:04:37 00:01:09 00:14:02 13.2 m/hr 00:01:10 00:05:55 9:33 min/m
11 21 66 Paulina CHADICK 197 00:27:50 00:04:41 00:01:23 00:15:23 12.1 m/hr 00:00:44 00:05:37 9:04 min/m
12 23 72 Reagan MCMICHAEL 188 00:28:14 00:04:44 00:01:27 00:14:55 12.5 m/hr 00:01:14 00:05:51 9:27 min/m
13 29 78 Eve HOLDER 186 00:28:44 00:04:05 00:01:38 00:15:33 12.0 m/hr 00:01:13 00:06:14 10:04 min/m
14 44 120 Brooke MILLER 173 00:33:01 00:04:20 00:00:31 00:13:51 13.4 m/hr 00:00:50 00:13:27 21:41 min/m
15 45 121 Abigail BERGMAN 195 00:33:04 00:05:28 00:01:32 00:18:08 10.2 m/hr 00:01:33 00:06:20 10:14 min/m
16 49 131 Daphney TOWNLEY 180 00:34:05 00:04:12 00:02:44 00:18:18 10.2 m/hr 00:01:00 00:07:48 12:36 min/m
17 57 142 Claire CONNALLY 206 00:35:32 00:05:10 00:02:41 00:18:38 10.0 m/hr 00:01:31 00:07:29 12:05 min/m
Male
1 4 6 Gray RUTHERFORD 175 00:22:19 00:03:57 00:00:40 00:11:59 15.5 m/hr 00:00:45 00:04:55 7:56 min/m
2 8 11 Tyler LUCE 178 00:23:32 00:03:53 00:00:48 00:13:26 13.8 m/hr 00:00:52 00:04:30 7:16 min/m
3 11 14 Rafael GONZALEZ 345 00:23:54 00:04:17 00:00:57 00:13:04 14.2 m/hr 00:00:49 00:04:46 7:41 min/m
4 12 15 Crawford SHAW 176 00:24:01 00:04:24 00:00:46 00:12:31 14.8 m/hr 00:00:41 00:05:37 9:03 min/m
5 13 16 Ilen MENON 181 00:24:02 00:03:32 00:00:41 00:14:27 12.9 m/hr 00:00:47 00:04:33 7:20 min/m
6 15 20 Matthew LANGHAM 191 00:24:11 00:04:29 00:01:07 00:12:52 14.5 m/hr 00:00:45 00:04:56 7:57 min/m
7 18 25 Ayden TREADAWAY 187 00:24:24 00:04:27 00:01:07 00:13:14 14.0 m/hr 00:00:46 00:04:48 7:45 min/m
8 19 26 Aiden BRADLEY 193 00:24:28 00:04:25 00:01:14 00:13:24 13.9 m/hr 00:00:43 00:04:40 7:32 min/m
9 21 28 Neel MENON 190 00:24:40 00:04:00 00:01:16 00:13:53 13.4 m/hr 00:00:42 00:04:47 7:43 min/m
10 22 30 Jackson GALLAGHER 200 00:25:07 00:04:20 00:01:27 00:13:17 14.0 m/hr 00:01:18 00:04:43 7:36 min/m
11 24 33 Gus REICHERT 215 00:25:18 00:04:12 00:01:30 00:13:45 13.5 m/hr 00:01:11 00:04:38 7:29 min/m
12 25 34 Micah OUTTERSIDE 202 00:25:22 00:04:41 00:01:21 00:13:30 13.8 m/hr 00:00:56 00:04:51 7:50 min/m
13 26 36 Santiago GONZALEZ 203 00:25:32 00:04:47 00:01:06 00:12:55 14.4 m/hr 00:01:07 00:05:35 9:01 min/m
14 30 41 Wade WEBER 208 00:25:45 00:04:02 00:01:37 00:13:41 13.6 m/hr 00:01:12 00:05:10 8:21 min/m
15 31 44 Jay WEATHERWAX 185 00:26:11 00:04:36 00:01:12 00:14:09 13.1 m/hr 00:00:57 00:05:15 8:29 min/m
16 32 45 Burt BARNES 174 00:26:22 00:04:19 00:00:56 00:13:29 13.8 m/hr 00:00:48 00:06:48 10:58 min/m
17 35 48 Grant GORDON 198 00:26:42 00:05:08 00:01:09 00:13:51 13.4 m/hr 00:01:08 00:05:23 8:42 min/m
18 46 68 Hayden LEONARD 201 00:27:57 00:04:58 00:01:30 00:13:03 14.2 m/hr 00:01:24 00:07:00 11:18 min/m
19 51 80 Owen STOLINSKI 346 00:28:53 00:04:56 00:01:16 00:14:49 12.5 m/hr 00:01:08 00:06:41 10:47 min/m
20 61 92 Harrison LYNDS 207 00:30:18 00:05:08 00:02:28 00:14:34 12.8 m/hr 00:01:32 00:06:33 10:34 min/m
21 65 96 Joshua SPALLER 209 00:30:22 00:04:30 00:02:22 00:15:22 12.1 m/hr 00:01:30 00:06:36 10:39 min/m
22 66 97 Sam RICHARDSON 189 00:30:35 00:06:01 00:01:05 00:15:24 12.1 m/hr 00:00:45 00:07:18 11:46 min/m
23 76 118 Wesley COUCH 172 00:32:44 00:04:25 00:00:40 00:13:24 13.9 m/hr 00:00:51 00:13:21 21:33 min/m
7 yo Fat Tire
Female
1 47 124 Sophia BIRD 329 00:33:12 00:06:25 00:01:06 00:17:37 10.6 m/hr 00:01:08 00:06:54 11:09 min/m
2 60 147 Katie SHINGLER 335 00:37:19 00:05:16 00:01:22 00:22:48 8.2 m/hr 00:01:04 00:06:47 10:57 min/m
3 61 148 Regina MCLEMORE 339 00:37:22 00:06:34 00:01:43 00:21:39 8.6 m/hr 00:01:35 00:05:49 9:23 min/m
4 70 164 Chloe NGUYEN 332 00:40:47 00:08:35 00:01:28 00:22:22 8.3 m/hr 00:01:21 00:06:59 11:17 min/m
5 73 169 Avery MADDOX 333 00:44:12 00:08:18 00:01:14 00:26:05 7.1 m/hr 00:00:55 00:07:38 12:19 min/m
6 75 171 Mary WARD 334 00:45:07 00:09:34 00:01:06 00:26:26 7.0 m/hr 00:00:54 00:07:04 11:25 min/m
7 77 174 Stella ZIEGLER 341 00:52:33 00:10:14 00:02:50 00:30:00 6.2 m/hr 00:01:21 00:08:06 13:04 min/m
      Evelyn PUTTY 324 00:40:30 00:07:40       00:01:11 00:07:34 12:13 min/m
Male
1 53 82 Philip TEGTMEIER 330 00:28:56 00:05:15 00:01:01 00:15:50 11.7 m/hr 00:00:53 00:05:55 9:33 min/m
2 60 91 Kamran VARGHESE 326 00:29:59 00:04:32 00:01:14 00:16:38 11.2 m/hr 00:00:45 00:06:48 10:58 min/m
3 68 103 Lucas TRAHAN 338 00:31:26 00:06:40 00:01:04 00:17:32 10.6 m/hr 00:01:09 00:05:00 8:04 min/m
4 73 111 Christopher HO 331 00:32:09 00:04:41 00:01:37 00:18:34 10.0 m/hr 00:01:10 00:06:05 9:50 min/m
5 74 112 Timothy KRAJCA 327 00:32:09 00:07:33 00:01:05 00:15:22 12.1 m/hr 00:01:00 00:07:06 11:27 min/m
6 82 130 Callen QUINN 336 00:34:00 00:05:47 00:01:12 00:19:55 9.3 m/hr 00:01:13 00:05:52 9:28 min/m
7 84 139 Everett WHILES 337 00:35:03 00:04:46 00:01:11 00:20:44 9.0 m/hr 00:01:31 00:06:50 11:01 min/m
8 91 155 Michael HULSEY 342 00:38:04 00:07:59 00:01:46 00:19:53 9.4 m/hr 00:02:02 00:06:22 10:17 min/m
9 93 159 Hudson MORROW 328 00:39:22 00:08:51 00:01:36 00:21:08 8.8 m/hr 00:01:14 00:06:32 10:32 min/m
10 94 161 Peter BRANOM 343 00:40:06 00:10:24 00:01:14 00:19:40 9.5 m/hr 00:01:12 00:07:35 12:14 min/m
11 96 167 Caldwell SPICER 340 00:42:55 00:09:27 00:01:35 00:24:12 7.7 m/hr 00:01:50 00:05:50 9:25 min/m
12 98 175 Benjamin GREIS 360 01:04:31 00:09:14 00:01:47 00:44:01 4.2 m/hr 00:01:42 00:07:45 12:30 min/m
7 yo Road BIke
Female
1 17 55 Fynley LONERGAN 319 00:27:14 00:04:47 00:01:20 00:16:05 11.6 m/hr 00:01:15 00:03:46 6:04 min/m
2 27 76 Kenzie COUCH 321 00:28:42 00:05:06 00:01:27 00:15:57 11.7 m/hr 00:00:46 00:05:24 8:43 min/m
3 35 102 Lilly HALL 320 00:31:18 00:05:21 00:02:21 00:16:38 11.2 m/hr 00:00:56 00:06:01 9:43 min/m
4 53 136 Brooklyn BAKER 322 00:34:47 00:06:04 00:01:29 00:20:12 9.2 m/hr 00:00:56 00:06:05 9:49 min/m
5 56 141 Arianna SIDWELL 349 00:35:13 00:05:43 00:02:08 00:19:34 9.5 m/hr 00:01:21 00:06:25 10:22 min/m
Male
1 33 46 Luke KARGES 323 00:26:26 00:05:42 00:01:19 00:13:19 14.0 m/hr 00:01:15 00:04:49 7:46 min/m
2 71 106 Brody ERICKSON 350 00:31:34 00:06:29 00:00:33 00:17:25 10.7 m/hr 00:01:08 00:05:56 9:34 min/m
3 97 172 Levi OWENS 351 00:46:18 00:06:09 00:05:20 00:26:50 6.9 m/hr 00:01:26 00:06:31 10:31 min/m
8 yo Fat Tire
Female
1 32 99 Morgan ETTER 305 00:30:37 00:05:27 00:00:49 00:17:01 10.9 m/hr 00:00:57 00:06:21 10:15 min/m
2 38 109 Clara WHILES 313 00:31:50 00:04:54 00:01:15 00:19:25 9.6 m/hr 00:00:46 00:05:29 8:51 min/m
3 39 113 Mackenzie MADSEN 308 00:32:17 00:05:25 00:01:49 00:18:54 9.8 m/hr 00:00:54 00:05:13 8:26 min/m
4 41 115 Abigail GORDON 307 00:32:24 00:05:05 00:01:33 00:17:53 10.4 m/hr 00:01:53 00:05:58 9:37 min/m
5 43 119 Julie MATZIG 314 00:32:59 00:04:54 00:01:17 00:19:01 9.8 m/hr 00:01:02 00:06:42 10:49 min/m
6 67 160 Kennedy GREIS 357 00:39:59 00:04:49 00:01:13 00:24:56 7.5 m/hr 00:01:05 00:07:54 12:44 min/m
7 68 162 Piper MURCHISON 358 00:40:08 00:08:09 00:01:21 00:21:08 8.8 m/hr 00:01:35 00:07:53 12:44 min/m
8 74 170 Ilese INMAN 312 00:45:04 00:10:20 00:00:47 00:26:00 7.2 m/hr 00:00:47 00:07:07 11:29 min/m
Male
1 69 104 Benton LAWSON 315 00:31:34 00:05:29 00:01:47 00:16:58 11.0 m/hr 00:00:55 00:06:22 10:17 min/m
2 72 110 Graham WILKE 311 00:32:03 00:05:08 00:02:32 00:17:08 10.8 m/hr 00:00:48 00:06:25 10:21 min/m
3 75 117 Beau MIXON 317 00:32:40 00:07:44 00:00:40 00:17:03 10.9 m/hr 00:00:50 00:06:22 10:17 min/m
4 77 122 Asher FOWLER 359 00:33:04 00:07:50 00:01:01 00:17:21 10.7 m/hr 00:00:59 00:05:50 9:25 min/m
5 83 133 Tristan FARRAR 310 00:34:08 00:06:35 00:01:07 00:18:27 10.1 m/hr 00:01:14 00:06:43 10:50 min/m
6 88 150 Brody MCMILLAN 316 00:37:33 00:05:46 00:02:22 00:21:05 8.8 m/hr 00:01:11 00:07:09 11:32 min/m
7 92 158 Blair REAMES 309 00:38:53 00:05:54 00:01:34 00:23:11 8.0 m/hr 00:01:30 00:06:43 10:50 min/m
8 95 165 Reed CROSS 306 00:41:19 00:09:03 00:01:06 00:21:34 8.6 m/hr 00:01:40 00:07:53 12:44 min/m
8 yo Road Bike
Female
1 4 18 Emily REITZER 293 00:24:08 00:03:58 00:00:54 00:13:02 14.3 m/hr 00:01:08 00:05:05 8:13 min/m
2 5 19 Emmagrace BULLOCK 287 00:24:10 00:04:02 00:00:42 00:14:06 13.2 m/hr 00:01:02 00:04:17 6:56 min/m
3 20 65 Alexis MCLEMORE 294 00:27:49 00:04:29 00:01:28 00:15:21 12.1 m/hr 00:00:46 00:05:43 9:13 min/m
4 22 67 Ava MILLER 285 00:27:50 00:04:19 00:00:47 00:16:03 11.6 m/hr 00:00:58 00:05:41 9:10 min/m
5 30 83 Abby MCMICHAEL 297 00:29:03 00:05:06 00:01:29 00:15:59 11.6 m/hr 00:01:04 00:05:23 8:41 min/m
6 51 134 Valeria ENRIQUEZ 300 00:34:27         00:01:59 00:06:19 10:11 min/m
7 52 135 Annabel ROBISON 292 00:34:29 00:05:16 00:01:42 00:18:14 10.2 m/hr 00:01:15 00:08:00 12:54 min/m
Male
1 1 2 Thijs KORTEKAAS 286 00:21:01 00:03:36 00:00:43 00:11:56 15.6 m/hr 00:00:57 00:03:47 6:06 min/m
2 2 3 Brayden BARRETT 284 00:21:23 00:03:33 00:00:45 00:12:00 15.5 m/hr 00:04:11 00:00:53 1:26 min/m
3 9 12 Drake OLSON 295 00:23:34 00:04:15 00:01:35 00:11:42 15.9 m/hr 00:01:16 00:04:43 7:38 min/m
4 23 32 Hayden WOODBURY 298 00:25:13 00:04:03 00:01:13 00:13:07 14.2 m/hr 00:01:04 00:05:43 9:14 min/m
5 37 53 Gavin NICKELL 301 00:27:03 00:05:22 00:01:05 00:14:49 12.5 m/hr 00:00:40 00:05:05 8:12 min/m
6 38 54 Michael SCHOEN 296 00:27:04 00:04:29 00:01:12 00:15:55 11.7 m/hr 00:01:21 00:04:06 6:37 min/m
7 41 59 Isaac WEINSTEIN 299 00:27:19 00:04:24 00:01:21 00:15:27 12.0 m/hr 00:00:53 00:05:13 8:26 min/m
8 47 69 Hudson BIRD 288 00:28:00 00:04:07 00:00:59 00:15:50 11.7 m/hr 00:01:28 00:05:34 8:59 min/m
9 62 93 Taylor CROWELL 348 00:30:20 00:06:36 00:00:33 00:17:11 10.8 m/hr 00:01:14 00:04:45 7:39 min/m
10 64 95 Maximilian LYSSY 302 00:30:22 00:05:04 00:01:50 00:15:30 12.0 m/hr 00:01:07 00:06:49 10:59 min/m
11 78 125 Dallen LANDREY 304 00:33:16 00:05:18 00:01:55 00:19:08 9.7 m/hr 00:01:18 00:05:34 8:59 min/m
      Jackson HOOD 303 00:18:02     00:03:13 57.6 m/hr      
9 yo Fat Tire
Female
1 55 138 Anna LOONEY 274 00:35:00 00:07:04 00:01:08 00:18:47 9.9 m/hr 00:01:01 00:06:58 11:14 min/m
2 59 146 Delaney SUSTALA 273 00:36:20 00:05:28 00:01:21 00:19:39 9.5 m/hr 00:01:09 00:08:41 14:01 min/m
3 62 149 Morgan MADDOX 276 00:37:22 00:07:23 00:01:07 00:20:12 9.2 m/hr 00:01:20 00:07:18 11:47 min/m
4 69 163 Madelyn HILL 283 00:40:10 00:14:14 00:01:44 00:15:55 11.7 m/hr 00:01:03 00:07:12 11:38 min/m
5 71 166 Alexandria HABY 282 00:42:02 00:06:15 00:02:40 00:19:53 9.3 m/hr 00:02:08 00:11:05 17:52 min/m
6 72 168 Mackenzie WRIGHT 280 00:43:38 00:06:19 00:04:21 00:22:59 8.1 m/hr 00:01:29 00:08:29 13:41 min/m
Male
1 28 38 Lawrence NEAL 279 00:25:36 00:05:42 00:00:53 00:12:57 14.4 m/hr 00:00:51 00:05:11 8:22 min/m
2 29 39 Tyler BARTELS 272 00:25:38 00:05:18 00:00:40 00:13:49 13.5 m/hr 00:00:43 00:05:06 8:14 min/m
3 36 52 Eric MARTINEZ 355 00:26:59 00:05:05 00:00:40 00:15:11 12.2 m/hr 00:00:57 00:05:04 8:11 min/m
4 43 62 Cameron SUSTALA 264 00:27:41 00:04:37 00:00:49 00:14:56 12.4 m/hr 00:00:48 00:06:28 10:26 min/m
5 44 63 Ethan HANTLA 268 00:27:45 00:04:08 00:02:48 00:14:35 12.7 m/hr 00:02:13 00:03:58 6:24 min/m
6 52 81 Grant COPEN 356 00:28:56 00:04:09 00:01:01 00:16:53 11.0 m/hr 00:00:48 00:06:02 9:44 min/m
7 54 85 Ben BREDESEN 267 00:29:21 00:04:15 00:01:19 00:16:58 11.0 m/hr 00:00:59 00:05:48 9:22 min/m
8 55 86 Andrew TEGTMEIER 275 00:29:27 00:04:58 00:00:57 00:15:47 11.8 m/hr 00:01:06 00:06:36 10:38 min/m
9 56 87 Eli WARD 270 00:29:33 00:05:37 00:01:38 00:14:41 12.7 m/hr 00:01:23 00:06:12 10:01 min/m
10 63 94 Owen BLUMENTHAL 269 00:30:20 00:04:13 00:01:45 00:17:55 10.4 m/hr 00:01:15 00:05:10 8:21 min/m
11 67 98 Caden KOBZA 266 00:30:36 00:05:38 00:00:43 00:17:15 10.8 m/hr 00:00:40 00:06:18 10:11 min/m
12 79 126 Zachary FARMER 281 00:33:32 00:06:10 00:01:54 00:16:47 11.1 m/hr 00:02:41 00:05:58 9:37 min/m
13 80 128 Robert STANNARD 271 00:33:51 00:05:41 00:01:58 00:18:38 10.0 m/hr 00:02:00 00:05:32 8:56 min/m
14 81 129 Davis PATTON 278 00:33:55 00:06:24 00:00:59 00:19:13 9.7 m/hr 00:00:53 00:06:24 10:20 min/m
15 89 151 Andrew MARTIN 265 00:37:38 00:06:49 00:02:17 00:19:41 9.4 m/hr 00:01:21 00:07:28 12:03 min/m
9 yo Road Bike
Female
1 2 4 Sofia MENENDEZ 238 00:22:12 00:04:01 00:00:51 00:12:19 15.1 m/hr 00:01:06 00:03:53 6:17 min/m
2 7 24 Avery AUBREY 242 00:24:23 00:03:55 00:00:58 00:12:42 14.6 m/hr 00:00:48 00:05:58 9:37 min/m
3 16 51 Ava SCHOEN 246 00:26:56 00:04:19 00:01:02 00:14:02 13.2 m/hr 00:01:10 00:06:20 10:13 min/m
4 19 60 Zoie Emmanuelle CATAQUIS 241 00:27:21 00:04:18 00:01:24 00:15:02 12.4 m/hr 00:01:23 00:05:11 8:23 min/m
5 24 73 Charlotte HOLDER 249 00:28:22 00:04:07 00:01:21 00:16:23 11.3 m/hr 00:01:20 00:05:10 8:20 min/m
6 31 84 Jacie GALLAHER 247 00:29:20 00:04:43 00:01:30 00:16:30 11.3 m/hr 00:01:05 00:05:30 8:53 min/m
7 34 101 Joshelle Anne CABRIANA 253 00:31:11 00:05:05 00:01:41 00:16:15 11.4 m/hr 00:01:25 00:06:43 10:51 min/m
8 36 107 Anna HUEBEL 261 00:31:37 00:05:03 00:01:45 00:17:38 10.5 m/hr 00:01:08 00:06:00 9:41 min/m
9 46 123 Lillie FLIPPEN 258 00:33:11 00:05:23 00:02:22 00:17:45 10.5 m/hr 00:00:59 00:06:40 10:46 min/m
10 50 132 Victoria PRACZKO 256 00:34:07 00:05:53 00:01:22 00:17:38 10.5 m/hr 00:01:45 00:07:25 11:58 min/m
Male
1 3 5 Bryce ERICKSON 250 00:22:14 00:03:44 00:00:47 00:11:44 15.8 m/hr 00:00:43 00:05:14 8:27 min/m
2 5 7 Tavish QUINN 248 00:22:30 00:03:47 00:00:39 00:12:17 15.1 m/hr 00:01:06 00:04:40 7:31 min/m
3 6 8 Samuel HALL 244 00:22:55 00:04:01 00:01:29 00:11:55 15.6 m/hr 00:00:57 00:04:31 7:18 min/m
4 7 9 Wade COUCH 237 00:23:25 00:03:53 00:00:44 00:12:43 14.6 m/hr 00:00:52 00:05:11 8:22 min/m
5 10 13 Kade SINCLAIR 245 00:23:50 00:04:04 00:01:00 00:12:49 14.5 m/hr 00:00:43 00:05:12 8:23 min/m
6 16 21 Kolby MARTIN 239 00:24:11 00:04:01 00:01:00 00:12:59 14.3 m/hr 00:00:44 00:05:26 8:46 min/m
7 20 27 Carson BAKER 243 00:24:33 00:04:15 00:01:01 00:13:08 14.2 m/hr 00:00:56 00:05:12 8:23 min/m
8 27 37 Ethan GARZA 252 00:25:33 00:04:00 00:01:08 00:13:35 13.7 m/hr 00:01:08 00:05:40 9:08 min/m
9 34 47 Carlyle SPICER 254 00:26:27 00:04:43 00:01:15 00:13:44 13.5 m/hr 00:01:09 00:05:35 9:01 min/m
10 42 61 Michael WATKINS 260 00:27:29 00:04:36 00:01:48 00:14:25 12.9 m/hr 00:01:02 00:05:37 9:04 min/m
11 48 70 Ty ROGERS 262 00:28:05 00:05:20 00:02:06 00:14:14 13.1 m/hr 00:01:47 00:04:36 7:26 min/m
12 49 71 Maverick FISHER 263 00:28:07 00:05:58 00:01:47 00:14:24 12.9 m/hr 00:00:57 00:04:59 8:03 min/m
13 57 88 Brayden OWENS 347 00:29:34 00:04:51 00:00:56 00:17:30 10.6 m/hr 00:00:51 00:05:25 8:44 min/m
14 59 90 Greyson THOMPSON 257 00:29:50 00:04:48 00:02:11 00:16:20 11.4 m/hr 00:01:10 00:05:20 8:37 min/m
15 87 144 Brendan BURTON 259 00:36:13 00:07:21 00:00:47 00:21:02 8.8 m/hr 00:00:55 00:06:07 9:52 min/m
16 90 154 Jackson RAMSEY 255 00:37:58 00:05:37 00:03:10 00:18:28 10.1 m/hr 00:02:02 00:08:40 13:59 min/m
Chip Timing by RRPTiming.com!

[ 6 Year Old ] [ 7 - 10 Year Old] [ 11 - 15 year Old ]

2017 TriAggieland Kids Tri
6 Year Old Results
# of finishers: 8
# of female finishers: 4
# of male finishers: 4
Gender Pos Pos Name Race No Time Age Group
Pos
Swim/Run
Split
T1 Bike
Split
Bike Pace T2 Run
Split
Run Pace
6 yo - Fat Tire
Female
1 1 4 Brooklyn POSS 436 00:37:08 00:04:14 00:02:08 00:23:27 7.9 m/hr 00:00:55 00:06:21 10:14 min/m
2 3 6 Sadie EZELL 443 00:42:43 00:05:22 00:02:26 00:22:51 8.1 m/hr 00:02:10 00:09:52 15:56 min/m
3 4 8 Kate MOODY 441 00:45:08 00:05:00 00:03:38 00:27:15 6.8 m/hr 00:01:18 00:07:55 12:47 min/m
      Preslee FARRAR 439 00:37:44 00:04:52         00:07:18 11:47 min/m
Male
1 1 1 Landon MATZIG 437 00:29:42 00:03:43 00:01:43 00:17:09 10.8 m/hr 00:01:15 00:05:50 9:24 min/m
2 2 2 Andrew UNGER 435 00:31:48 00:03:54 00:01:51 00:18:26 10.1 m/hr 00:00:45 00:06:50 11:02 min/m
3 3 3 Luke MATZIG 438 00:34:21 00:04:41 00:01:49 00:19:09 9.7 m/hr 00:01:14 00:07:26 11:59 min/m
4 4 7 Billy MCMILLAN 440 00:43:35 00:05:26 00:02:57 00:27:50 6.7 m/hr 00:01:04 00:06:16 10:07 min/m
6 yo - Road Bike
Female
1 2 5 Zoe SPALLER 442 00:38:34 00:06:05 00:02:22 00:21:15 8.7 m/hr 00:01:01 00:07:49 12:36 min/m
Chip Timing by RRPTiming.com!
AttachmentSize
2017_TriAggielandKidsTri_ClubPoints.xlsx18.63 KB

© copyright 2013, RRPTiming.com. RRPTiming is a Redemption Race Productions site. Website by Rich.